Latest Weather Observations for Mount Boyce

IDN60801

Issued at 8:32 pm EST Monday 2 May 2016 (issued every 30 minutes, with the page automatically refreshed every 10 minutes)

About weather observations | Map of weather stations | Latest weather observations for NSW | Other Formats
Station Details ID: 063292 Name: MOUNT BOYCE AWS Lat: -33.62 Lon: 150.27 Height: 1080.0 m
Data from the previous 72 hours. | See also: Recent months at Mount Boyce
Date/Time
EST
Temp
°C
App
Temp
°C
Dew
Point
Rel
Hum
%
Delta-T
°C
Wind Press
QNH
hPa
Press
MSL
hPa
Rain
since 9 am
mm
Dir
 
Spd
km/h
Gust
km/h
Spd
kts
Gust
kts
02/08:30pm 9.8 3.7 2.6 61 3.3 W 24 33 13 18 - - 0.0
02/08:00pm 10.2 4.1 2.6 59 3.5 W 24 39 13 21 - - 0.0
02/07:30pm 10.3 3.4 2.7 59 3.5 W 28 44 15 24 - - 0.0
02/07:00pm 10.8 3.5 2.6 57 3.8 W 30 48 16 26 - - 0.0
02/06:50pm 10.9 3.6 2.5 56 3.9 W 30 48 16 26 - - 0.0
02/06:30pm 11.1 3.5 2.7 56 3.9 W 32 48 17 26 - - 0.0
02/06:00pm 11.3 3.6 2.1 53 4.2 W 32 46 17 25 - - 0.0
02/05:30pm 11.9 4.6 2.4 52 4.4 W 30 43 16 23 - - 0.0
02/05:00pm 12.2 6.0 2.4 51 4.5 W 24 41 13 22 - - 0.0
02/04:30pm 12.5 6.7 2.4 50 4.7 W 22 32 12 17 - - 0.0
02/04:00pm 12.9 6.7 2.2 48 5.0 W 24 39 13 21 - - 0.0
02/03:30pm 13.3 7.3 1.3 44 5.5 W 22 35 12 19 - - 0.0
02/03:00pm 13.7 7.8 2.0 45 5.4 W 22 39 12 21 - - 0.0
02/02:30pm 13.9 7.5 0.9 41 5.9 W 24 44 13 24 - - 0.0
02/02:00pm 14.4 8.3 0.3 38 6.4 W 22 32 12 17 - - 0.0
02/01:30pm 15.0 9.5 0.8 38 6.5 W 19 26 10 14 - - 0.0
02/01:00pm 15.4 9.2 0.0 35 7.0 W 22 37 12 20 - - 0.0
02/12:30pm 15.1 8.2 -2.3 30 7.5 W 24 39 13 21 - - 0.0
02/12:00pm 15.9 9.7 -0.3 33 7.3 W 22 37 12 20 - - 0.0
02/11:30am 14.8 9.3 0.3 37 6.6 W 19 30 10 16 - - 0.0
02/11:00am 13.9 8.9 3.7 50 4.9 W 19 30 10 16 - - 0.0
02/10:30am 12.4 8.3 4.1 57 4.0 W 15 24 8 13 - - 0.0
02/10:00am 11.1 7.1 5.0 66 3.0 WSW 15 22 8 12 - - 0.0
02/09:30am 9.8 5.8 4.8 71 2.4 WSW 15 22 8 12 - - 0.0
02/09:00am 8.8 4.3 4.0 72 2.2 W 17 24 9 13 - - 0.0
02/08:30am 7.5 2.8 3.4 75 1.9 W 17 26 9 14 - - 0.0
02/08:00am 6.4 1.7 3.2 80 1.4 W 17 24 9 13 - - 0.0
02/07:30am 5.6 0.8 2.8 82 1.2 WSW 17 22 9 12 - - 0.0
02/07:00am 5.6 0.8 2.8 82 1.2 WSW 17 22 9 12 - - 0.0
02/06:30am 5.7 1.0 2.9 82 1.2 WSW 17 24 9 13 - - 0.0
02/06:00am 5.6 0.5 2.8 82 1.2 WSW 19 26 10 14 - - 0.0
02/05:30am 5.7 0.6 3.0 83 1.2 WSW 19 28 10 15 - - 0.0
02/05:00am 5.9 0.6 3.1 82 1.2 W 20 28 11 15 - - 0.0
02/04:30am 6.2 0.6 3.2 81 1.3 W 22 30 12 16 - - 0.0
02/04:00am 6.6 1.0 3.4 80 1.4 W 22 32 12 17 - - 0.0
02/03:30am 6.5 1.3 3.5 81 1.4 W 20 30 11 16 - - 0.0
02/03:00am 6.7 1.5 3.7 81 1.4 W 20 26 11 14 - - 0.0
02/02:30am 6.8 1.3 3.8 81 1.4 W 22 32 12 17 - - 0.0
02/02:00am 6.9 1.4 3.9 81 1.4 W 22 28 12 15 - - 0.0
02/01:30am 6.9 1.4 4.0 82 1.3 W 22 33 12 18 - - 0.0
02/01:00am 7.1 1.7 4.4 83 1.3 W 22 32 12 17 - - 0.0
02/12:30am 6.9 2.4 4.4 84 1.2 WSW 17 24 9 13 - - 0.0
02/12:00am 7.5 2.7 4.6 82 1.4 WSW 19 28 10 15 - - 0.0
 
Date/Time
EST
Temp
°C
App
Temp
°C
Dew
Point
Rel
Hum
%
Delta-T
°C
Wind Press
QNH
hPa
Press
MSL
hPa
Rain
since 9 am
mm
Dir
 
Spd
km/h
Gust
km/h
Spd
kts
Gust
kts
01/11:30pm 8.1 2.7 4.7 79 1.6 WSW 22 33 12 18 - - 0.0
01/11:00pm 8.6 2.8 4.6 76 1.9 WSW 24 35 13 19 - - 0.0
01/10:30pm 9.1 2.6 4.5 73 2.2 W 28 39 15 21 - - 0.0
01/10:00pm 9.5 3.0 4.5 71 2.4 W 28 44 15 24 - - 0.0
01/09:30pm 9.7 3.6 4.7 71 2.4 W 26 35 14 19 - - 0.0
01/09:00pm 10.2 3.7 4.6 68 2.7 W 28 46 15 25 - - 0.0
01/08:31pm 10.8 3.0 5.1 68 2.8 W 35 54 19 29 - - 0.0
01/08:30pm 10.8 2.6 4.9 67 2.9 W 37 54 20 29 - - 0.0
01/08:00pm 11.2 4.0 5.9 70 2.6 W 33 54 18 29 - - 0.0
01/07:30pm 12.1 5.3 7.6 74 2.3 W 33 52 18 28 - - 0.0
01/07:00pm 12.9 6.5 6.9 67 3.1 W 30 52 16 28 - - 0.0
01/06:30pm 13.8 6.7 6.4 61 3.8 W 33 54 18 29 - - 0.0
01/06:00pm 14.5 6.5 5.8 56 4.4 W 37 57 20 31 - - 0.0
01/05:30pm 15.2 7.2 5.7 53 4.8 W 37 61 20 33 - - 0.0
01/05:00pm 15.9 8.7 5.8 51 5.2 W 33 57 18 31 - - 0.0
01/04:30pm 17.0 8.1 5.3 46 6.0 W 41 65 22 35 - - 0.0
01/04:00pm 17.6 10.7 7.1 50 5.6 W 33 57 18 31 - - 0.0
01/03:30pm 17.5 11.0 10.4 63 4.0 W 35 59 19 32 - - 0.0
01/03:00pm 17.5 11.1 9.2 58 4.6 W 33 52 18 28 - - 0.0
01/02:30pm 17.9 10.5 9.8 59 4.5 W 39 57 21 31 - - 0.0
01/02:00pm 18.1 10.8 10.2 60 4.4 W 39 67 21 36 - - 0.0
01/01:30pm 17.7 11.3 10.6 63 4.0 W 35 57 19 31 - - 0.0
01/01:00pm 17.4 11.6 11.4 68 3.4 W 33 52 18 28 - - 0.0
01/12:30pm 17.0 10.8 11.5 70 3.1 WNW 35 65 19 35 - - 0.0
01/12:00pm 16.2 10.6 11.4 73 2.7 W 32 56 17 30 - - 0.0
01/11:47am 16.4 10.9 12.0 75 2.5 W 32 54 17 29 - - 0.0
01/11:30am 15.5 11.2 11.9 79 2.1 W 26 46 14 25 - - 0.0
01/11:00am 15.7 10.9 11.7 77 2.3 W 28 46 15 25 - - 0.0
01/10:30am 15.1 10.4 11.9 81 1.8 W 28 48 15 26 - - 0.0
01/10:29am 15.1 10.3 11.7 80 1.9 W 28 48 15 26 - - 0.0
01/10:00am 14.7 10.3 11.8 83 1.7 W 26 37 14 20 - - 0.0
01/09:30am 14.4 11.3 12.3 87 1.2 W 20 35 11 19 - - 0.0
01/09:14am 14.2 10.8 12.4 89 1.0 W 22 39 12 21 - - 0.0
01/09:00am 13.9 9.7 12.5 91 0.8 W 26 43 14 23 - - 1.4
01/08:30am 13.6 9.5 12.7 94 0.5 W 26 43 14 23 - - 1.4
01/08:28am 13.5 9.8 12.6 94 0.5 W 24 39 13 21 - - 1.4
01/08:11am 13.4 7.5 12.5 94 0.5 WNW 35 57 19 31 - - 1.4
01/08:00am 13.1 7.6 12.5 96 0.3 WNW 33 59 18 32 - - 1.4
01/07:52am 13.0 8.1 12.5 97 0.3 WNW 30 48 16 26 - - 1.4
01/07:49am 12.9 8.3 12.4 97 0.3 W 28 44 15 24 - - 1.4
01/07:30am 13.0 8.5 12.5 97 0.3 W 28 48 15 26 - - 1.2
01/07:29am 13.0 8.5 12.5 97 0.3 W 28 41 15 22 - - 1.2
01/07:11am 13.2 8.3 12.7 97 0.3 W 30 52 16 28 - - 0.8
01/07:00am 13.3 8.1 12.8 97 0.3 W 32 44 17 24 - - 0.6
01/06:37am 13.4 8.2 12.9 97 0.3 W 32 52 17 28 - - 0.4
01/06:30am 13.4 8.2 12.9 97 0.3 W 32 46 17 25 - - 0.4
01/06:00am 13.7 7.9 12.6 93 0.6 W 35 56 19 30 - - 0.2
01/05:36am 13.6 8.1 12.5 93 0.6 W 33 61 18 33 - - 0.0
01/05:30am 13.6 8.1 12.3 92 0.7 W 33 48 18 26 - - 0.0
01/05:18am 13.8 8.9 12.4 91 0.8 W 30 44 16 24 - - 0.0
01/05:10am 13.6 9.0 12.3 92 0.7 W 28 41 15 22 - - 0.0
01/05:00am 13.6 9.5 12.7 94 0.5 W 26 44 14 24 - - 0.0
01/04:48am 12.7 9.1 11.9 95 0.5 W 22 30 12 16 - - 0.0
01/04:30am 13.2 11.3 11.8 91 0.8 W 13 22 7 12 - - 0.0
01/04:00am 13.6 11.8 12.0 90 0.9 WNW 13 22 7 12 - - 0.0
01/03:30am 13.7 11.8 11.8 88 1.1 WNW 13 32 7 17 - - 0.0
01/03:00am 13.6 12.4 11.7 88 1.1 WNW 9 17 5 9 - - 0.0
01/02:30am 13.8 12.3 11.8 88 1.1 NW 11 19 6 10 - - 0.0
01/02:00am 13.1 12.0 12.0 93 0.6 NW 9 17 5 9 - - 0.0
01/01:30am 12.8 11.3 12.0 95 0.5 WNW 11 17 6 9 - - 0.0
01/01:00am 12.7 11.6 11.9 95 0.5 W 9 17 5 9 - - 0.0
01/12:30am 12.8 11.1 12.3 97 0.3 WNW 13 17 7 9 - - 0.0
01/12:00am 12.6 11.1 11.8 95 0.5 W 11 15 6 8 - - 0.0
 
Date/Time
EST
Temp
°C
App
Temp
°C
Dew
Point
Rel
Hum
%
Delta-T
°C
Wind Press
QNH
hPa
Press
MSL
hPa
Rain
since 9 am
mm
Dir
 
Spd
km/h
Gust
km/h
Spd
kts
Gust
kts
30/11:30pm 12.9 11.8 12.0 94 0.5 WSW 9 13 5 7 - - 0.0
30/11:00pm 13.4 12.0 12.1 92 0.7 W 11 15 6 8 - - 0.0
30/10:30pm 14.2 12.1 12.4 89 1.0 W 15 28 8 15 - - 0.0
30/10:00pm 14.1 12.6 11.8 86 1.3 WNW 11 17 6 9 - - 0.0
30/09:30pm 14.7 12.9 12.0 84 1.5 WNW 13 26 7 14 - - 0.0
30/09:00pm 14.8 12.2 12.1 84 1.5 WNW 17 28 9 15 - - 0.0
30/08:30pm 14.7 12.5 12.0 84 1.5 NW 15 26 8 14 - - 0.0
30/08:00pm 14.4 12.6 12.1 86 1.3 NW 13 19 7 10 - - 0.0
30/07:30pm 13.6 12.4 11.7 88 1.1 NW 9 17 5 9 - - 0.0
30/07:00pm 14.3 14.2 12.0 86 1.3 WNW 4 9 2 5 - - 0.0
30/06:30pm 14.6 14.1 12.1 85 1.4 WNW 6 9 3 5 - - 0.0
30/06:00pm 14.6 13.9 11.4 81 1.8 WNW 6 9 3 5 - - 0.0
30/05:30pm 15.4 14.6 11.6 78 2.2 W 7 11 4 6 - - 0.0
30/05:00pm 15.9 15.2 11.5 75 2.5 W 6 11 3 6 - - 0.0
30/04:30pm 16.8 14.9 11.7 72 2.9 WSW 13 19 7 10 - - 0.0
30/04:00pm 16.8 14.8 11.5 71 3.0 W 13 20 7 11 - - 0.0
30/03:30pm 17.3 15.4 11.8 70 3.2 W 13 20 7 11 - - 0.0
30/03:00pm 17.1 14.8 11.8 71 3.1 W 15 22 8 12 - - 0.0
30/02:30pm 17.3 13.2 11.3 68 3.4 WSW 24 39 13 21 - - 0.0
30/02:00pm 17.5 14.6 12.2 71 3.1 WSW 19 28 10 15 - - 0.0
30/01:30pm 16.6 12.7 12.0 74 2.7 WSW 24 37 13 20 - - 0.0
30/01:00pm 16.5 13.1 12.5 77 2.3 WSW 22 32 12 17 - - 0.0
30/12:30pm 17.2 15.2 12.7 75 2.6 W 15 22 8 12 - - 0.0
30/12:00pm 17.0 15.4 12.9 77 2.4 W 13 20 7 11 - - 0.0
30/11:36am 16.7 14.8 13.0 79 2.2 W 15 26 8 14 - - 0.0
30/11:30am 16.5 14.2 13.0 80 2.1 WNW 17 26 9 14 - - 0.0
30/11:00am 15.6 12.6 12.4 81 1.9 WSW 20 35 11 19 - - 0.0
30/10:59am 15.6 12.6 12.4 81 1.9 WSW 20 35 11 19 - - 0.0
30/10:30am 15.5 12.6 12.4 82 1.8 WNW 19 35 10 19 - - 0.0
30/10:00am 15.3 12.2 12.2 82 1.8 WNW 20 33 11 18 - - 0.0
30/09:30am 15.4 12.5 12.3 82 1.8 WNW 19 35 10 19 - - 0.0
30/09:00am 15.1 12.5 11.9 81 1.8 WNW 17 33 9 18 - - 0.0
30/08:30am 15.1 12.8 11.7 80 1.9 WNW 15 28 8 15 - - 0.0
30/08:00am 15.0 12.6 11.4 79 2.0 NW 15 32 8 17 - - 0.0
30/07:30am 14.3 12.0 11.8 85 1.4 NNW 15 28 8 15 - - 0.0
30/07:00am 14.0 11.4 11.9 87 1.2 NW 17 28 9 15 - - 0.0
30/06:30am 13.2 11.1 12.4 95 0.5 WNW 15 28 8 15 - - 0.0
30/06:12am 12.9 10.8 12.3 96 0.3 W 15 24 8 13 - - 0.0
30/06:00am 12.9 11.1 12.1 95 0.5 W 13 20 7 11 - - 0.0
30/05:58am 12.9 10.7 12.0 94 0.5 W 15 20 8 11 - - 0.0
30/05:30am 13.1 12.0 11.8 92 0.7 W 9 13 5 7 - - 0.0
30/05:00am 13.1 11.2 11.7 91 0.8 WSW 13 17 7 9 - - 0.0
30/04:30am 13.4 11.1 11.6 89 1.0 WSW 15 20 8 11 - - 0.0
30/04:00am 13.5 11.5 11.4 87 1.2 WSW 13 19 7 10 - - 0.0
30/03:30am 14.1 12.8 11.4 84 1.5 W 9 13 5 7 - - 0.0
30/03:00am 14.1 12.8 11.1 82 1.7 W 9 17 5 9 - - 0.0
30/02:30am 13.9 12.3 10.1 78 2.1 W 9 13 5 7 - - 0.0
30/02:00am 14.5 12.8 9.9 74 2.5 WNW 9 13 5 7 - - 0.0
30/01:30am 14.7 12.3 10.1 74 2.5 WNW 13 19 7 10 - - 0.0
30/01:00am 14.4 12.7 10.0 75 2.4 W 9 15 5 8 - - 0.0
30/12:30am 14.8 13.7 9.8 72 2.7 WSW 6 9 3 5 - - 0.0
30/12:00am 15.6 14.4 9.7 68 3.2 WNW 6 9 3 5 - - 0.0
 
Date/Time
EST
Temp
°C
App
Temp
°C
Dew
Point
Rel
Hum
%
Delta-T
°C
Wind Press
QNH
hPa
Press
MSL
hPa
Rain
since 9 am
mm
Dir
 
Spd
km/h
Gust
km/h
Spd
kts
Gust
kts
29/11:30pm 16.2 14.5 9.8 66 3.5 N 9 17 5 9 - - 0.0
29/11:00pm 16.4 14.0 10.0 66 3.6 N 13 20 7 11 - - 0.0
29/10:30pm 16.3 14.2 9.9 66 3.5 N 11 19 6 10 - - 0.0
29/10:00pm 16.0 14.0 10.1 68 3.3 NNE 11 19 6 10 - - 0.0
29/09:30pm 15.9 13.9 10.2 69 3.2 NNE 11 17 6 9 - - 0.0
29/09:00pm 16.0 14.4 10.3 69 3.2 NNE 9 17 5 9 - - 0.0

Other Formats:

Comma delimited format used in spreadsheet applications
http://www.bom.gov.au/fwo/IDN60801/IDN60801.94743.axf

JavaScript Object Notation format (JSON) in row-major order
http://www.bom.gov.au/fwo/IDN60801/IDN60801.94743.json